Columbus, North Dakota
Current Conditions -  °F | °C
As of 4:00 AM on Sunday 25 Jan 2015 (Local Time) from CYEN Reporting Station
Overcast Overcast  
Wind Chill: 20°   Ceiling: 600
Heat Index: 30°   Visibility: 15mi
Dew Point: 28°   Wind: 14mph
Humidity: 93%   Direction: 320°NW
Pressure: 29.95"   Gusts: NA
Location:  48.9°N, 102.78°W
Report Text: CYEN 251000Z 32012KT 15SM OVC006 M01/M02 A2995 RMK SC8 SLP169
Loading
Personal Weather Stations






























Interactive Weather Map New forecast layout! Learn more

10-Day Weather Forecast

Advertisements
Track Severe Weather on mobile